createdAt,value
2022-11-06T00:00:41.693Z,99.78
2022-11-06T00:01:41.762Z,99.21
2022-11-06T00:02:41.755Z,99.99
2022-11-06T00:03:41.683Z,99.99
2022-11-06T00:04:41.721Z,99.99
2022-11-06T00:05:41.736Z,99.99
2022-11-06T00:06:41.667Z,99.99
2022-11-06T00:07:41.642Z,99.99
2022-11-06T00:08:41.692Z,99.99
2022-11-06T00:09:41.643Z,99.99
2022-11-06T00:10:41.608Z,99.99
2022-11-06T00:11:41.621Z,99.99
2022-11-06T00:12:41.607Z,99.99
2022-11-06T00:13:41.618Z,99.99
2022-11-06T00:14:41.590Z,99.99
2022-11-06T00:15:41.636Z,99.99
2022-11-06T00:16:41.580Z,99.99
2022-11-06T00:17:41.580Z,99.88
2022-11-06T00:18:41.572Z,99.88
2022-11-06T00:19:41.572Z,99.99
2022-11-06T00:20:41.576Z,99.99
2022-11-06T00:21:41.551Z,99.99
2022-11-06T00:22:41.544Z,99.99
2022-11-06T00:23:41.527Z,99.99
2022-11-06T00:24:41.647Z,99.99
2022-11-06T00:25:41.518Z,99.99
2022-11-06T00:26:41.511Z,99.68
2022-11-06T00:27:41.529Z,99.99
2022-11-06T00:28:41.502Z,99.99
2022-11-06T00:29:41.494Z,99.99
2022-11-06T00:30:41.599Z,99.88
2022-11-06T00:31:41.501Z,99.99
2022-11-06T00:32:41.493Z,99.99
2022-11-06T00:33:41.475Z,99.99
2022-11-06T00:34:41.457Z,99.99
2022-11-06T00:35:41.475Z,99.99
2022-11-06T00:36:41.994Z,99.99
2022-11-06T00:37:41.441Z,99.82
2022-11-06T00:38:41.453Z,99.99
2022-11-06T00:39:41.447Z,99.62
2022-11-06T00:40:41.439Z,99.72
2022-11-06T00:41:41.522Z,99.99
2022-11-06T00:42:41.421Z,99.82
2022-11-06T00:43:41.434Z,99.82
2022-11-06T00:44:41.397Z,99.82
2022-11-06T00:45:41.396Z,99.52
2022-11-06T00:46:41.410Z,99.99
2022-11-06T00:47:41.380Z,99.99
2022-11-06T00:48:41.383Z,99.99
2022-11-06T00:49:41.375Z,99.99
2022-11-06T00:50:41.389Z,99.99
2022-11-06T00:51:41.386Z,99.99
2022-11-06T00:52:41.396Z,99.87
2022-11-06T00:53:41.344Z,99.56
2022-11-06T00:54:41.332Z,99.56
2022-11-06T00:55:41.351Z,99.56
2022-11-06T00:56:41.335Z,99.99
2022-11-06T00:57:41.349Z,99.99
2022-11-06T00:58:41.327Z,99.99
2022-11-06T00:59:41.496Z,99.99
2022-11-06T01:00:41.307Z,99.99
2022-11-06T01:01:41.467Z,99.99
2022-11-06T01:02:41.494Z,99.99
2022-11-06T01:03:41.324Z,99.99
2022-11-06T01:04:41.283Z,99.99
2022-11-06T01:05:41.292Z,99.99
2022-11-06T01:06:41.265Z,99.99
2022-11-06T01:07:41.266Z,99.99
2022-11-06T01:08:41.313Z,99.99
2022-11-06T01:09:41.269Z,99.99
2022-11-06T01:10:42.231Z,99.99
2022-11-06T01:12:10.908Z,99.99
2022-11-06T01:12:43.221Z,99.99
2022-11-06T01:13:41.224Z,99.99
2022-11-06T01:14:41.319Z,99.99
2022-11-06T01:15:41.220Z,99.99
2022-11-06T01:16:41.196Z,99.78
2022-11-06T01:17:41.202Z,99.43
2022-11-06T01:18:41.216Z,99.88
2022-11-06T01:19:41.213Z,99.88
2022-11-06T01:20:41.190Z,99.99
2022-11-06T01:21:41.199Z,99.78
2022-11-06T01:22:41.168Z,99.88
2022-11-06T01:23:41.179Z,99.88
2022-11-06T01:24:41.209Z,99.99
2022-11-06T01:25:41.162Z,99.99
2022-11-06T01:26:58.507Z,99.99
2022-11-06T01:27:42.145Z,99.99
2022-11-06T01:28:41.120Z,99.99
2022-11-06T01:29:41.148Z,99.99
2022-11-06T01:30:41.152Z,99.99
2022-11-06T01:31:41.120Z,99.99
2022-11-06T01:32:41.133Z,99.84
2022-11-06T01:33:41.130Z,99.99
2022-11-06T01:34:41.100Z,99.99
2022-11-06T01:35:41.087Z,99.99
2022-11-06T01:36:41.113Z,99.99
2022-11-06T01:37:41.083Z,99.99
2022-11-06T01:38:41.100Z,99.73
2022-11-06T01:39:41.068Z,99.63
2022-11-06T01:40:41.060Z,99.99
2022-11-06T01:41:41.168Z,99.99
2022-11-06T01:42:41.055Z,99.99
2022-11-06T01:43:41.142Z,99.99
2022-11-06T01:44:41.041Z,99.99
2022-11-06T01:45:41.034Z,99.99
2022-11-06T01:46:41.034Z,99.99
2022-11-06T01:47:41.160Z,99.84
2022-11-06T01:48:41.019Z,99.63
2022-11-06T01:49:40.996Z,99.88
2022-11-06T01:50:41.076Z,99.99
2022-11-06T01:51:41.009Z,99.88
2022-11-06T01:52:41.010Z,99.78
2022-11-06T01:53:40.972Z,99.78
2022-11-06T01:54:40.992Z,99.06
2022-11-06T01:55:40.967Z,99.26
2022-11-06T01:56:40.968Z,99.47
2022-11-06T01:57:40.945Z,99.99
2022-11-06T01:58:41.068Z,99.94
2022-11-06T01:59:40.956Z,99.57
2022-11-06T02:00:40.941Z,99.37
2022-11-06T02:01:41.033Z,99.37
2022-11-06T02:02:41.059Z,99.16
2022-11-06T02:03:40.951Z,99.26
2022-11-06T02:04:40.907Z,99.26
2022-11-06T02:05:40.912Z,99.31
2022-11-06T02:06:40.905Z,99.41
2022-11-06T02:07:40.869Z,99.62
2022-11-06T02:08:40.900Z,99.00
2022-11-06T02:09:40.905Z,99.46
2022-11-06T02:10:40.883Z,99.99
2022-11-06T02:11:40.872Z,99.99
2022-11-06T02:12:40.883Z,99.66
2022-11-06T02:13:40.858Z,99.56
2022-11-06T02:14:40.895Z,99.72
2022-11-06T02:15:40.841Z,99.35
2022-11-06T02:16:40.830Z,99.41
2022-11-06T02:17:40.816Z,99.46
2022-11-06T02:18:40.840Z,99.35
2022-11-06T02:19:40.822Z,99.35
2022-11-06T02:20:40.837Z,99.66
2022-11-06T02:21:40.818Z,99.46
2022-11-06T02:22:40.819Z,99.66
2022-11-06T02:23:40.786Z,99.40
2022-11-06T02:24:40.785Z,99.87
2022-11-06T02:25:40.800Z,99.61
2022-11-06T02:26:40.772Z,99.71
2022-11-06T02:27:40.775Z,99.92
2022-11-06T02:28:40.762Z,99.99
2022-11-06T02:29:40.748Z,99.87
2022-11-06T02:30:40.755Z,99.46
2022-11-06T02:31:40.764Z,99.99
2022-11-06T02:32:41.752Z,99.61
2022-11-06T02:33:40.745Z,99.40
2022-11-06T02:34:40.716Z,99.51
2022-11-06T02:35:40.708Z,99.61
2022-11-06T02:36:40.811Z,99.99
2022-11-06T02:37:40.719Z,99.99
2022-11-06T02:38:40.686Z,99.99
2022-11-06T02:39:40.689Z,99.99
2022-11-06T02:40:40.702Z,99.82
2022-11-06T02:41:40.680Z,99.99
2022-11-06T02:42:40.693Z,99.76
2022-11-06T02:43:40.667Z,99.30
2022-11-06T02:44:41.645Z,99.44
2022-11-06T02:45:40.641Z,99.55
2022-11-06T02:46:40.649Z,99.34
2022-11-06T02:47:40.755Z,99.86
2022-11-06T02:48:40.625Z,99.76
2022-11-06T02:49:40.604Z,99.99
2022-11-06T02:50:40.610Z,99.39
2022-11-06T02:51:40.624Z,99.99
2022-11-06T02:52:40.609Z,99.99
2022-11-06T02:53:40.704Z,99.34
2022-11-06T02:54:40.586Z,99.34
2022-11-06T02:55:40.593Z,99.60
2022-11-06T02:56:40.588Z,99.64
2022-11-06T02:57:40.566Z,99.70
2022-11-06T02:58:43.606Z,99.99
2022-11-06T02:59:41.573Z,99.99
2022-11-06T03:00:40.559Z,99.99
2022-11-06T03:01:40.653Z,99.99
2022-11-06T03:02:40.849Z,99.99
2022-11-06T03:03:40.528Z,99.99
2022-11-06T03:04:40.552Z,99.64
2022-11-06T03:05:40.512Z,99.99
2022-11-06T03:06:40.515Z,99.99
2022-11-06T03:07:40.510Z,99.99
2022-11-06T03:08:40.512Z,99.99
2022-11-06T03:09:40.559Z,99.43
2022-11-06T03:10:40.484Z,99.85
2022-11-06T03:11:40.475Z,99.99
2022-11-06T03:12:41.474Z,99.99
2022-11-06T03:13:40.462Z,99.99
2022-11-06T03:14:40.459Z,99.79
2022-11-06T03:15:40.484Z,99.99
2022-11-06T03:16:40.433Z,99.99
2022-11-06T03:17:40.439Z,99.99
2022-11-06T03:18:40.431Z,99.99
2022-11-06T03:19:40.423Z,99.99
2022-11-06T03:20:40.450Z,99.99
2022-11-06T03:21:40.429Z,99.99
2022-11-06T03:22:40.419Z,99.99
2022-11-06T03:23:40.402Z,99.99
2022-11-06T03:24:40.411Z,99.99
2022-11-06T03:25:40.397Z,99.99
2022-11-06T03:26:40.404Z,99.99
2022-11-06T03:27:40.378Z,99.99
2022-11-06T03:28:40.379Z,99.99
2022-11-06T03:29:40.349Z,99.99
2022-11-06T03:30:40.347Z,99.99
2022-11-06T03:31:40.384Z,99.99
2022-11-06T03:32:40.338Z,99.99
2022-11-06T03:33:40.341Z,99.99
2022-11-06T03:34:40.325Z,99.99
2022-11-06T03:35:40.318Z,99.99
2022-11-06T03:36:40.311Z,99.99
2022-11-06T03:37:40.336Z,99.99
2022-11-06T03:38:42.455Z,99.99
2022-11-06T03:39:41.296Z,99.99
2022-11-06T03:40:40.299Z,99.99
2022-11-06T03:41:40.297Z,99.99
2022-11-06T03:42:40.307Z,99.99
2022-11-06T03:43:40.270Z,99.99
2022-11-06T03:44:40.268Z,99.99
2022-11-06T03:45:40.249Z,99.73
2022-11-06T03:46:40.257Z,99.99
2022-11-06T03:47:40.242Z,99.99
2022-11-06T03:48:40.257Z,99.99
2022-11-06T03:49:40.222Z,99.99
2022-11-06T03:50:40.241Z,99.99
2022-11-06T03:51:40.221Z,99.99
2022-11-06T03:52:42.519Z,99.99
2022-11-06T03:53:40.246Z,99.99
2022-11-06T03:54:40.210Z,99.99
2022-11-06T03:55:40.213Z,99.99
2022-11-06T03:56:40.200Z,99.99
2022-11-06T03:57:40.187Z,99.99
2022-11-06T03:58:40.233Z,99.99
2022-11-06T03:59:40.188Z,99.99
2022-11-06T04:00:40.155Z,99.99
2022-11-06T04:01:40.303Z,99.99
2022-11-06T04:02:40.302Z,99.99
2022-11-06T04:03:40.146Z,99.99
2022-11-06T04:04:40.166Z,99.99
2022-11-06T04:05:40.126Z,99.99
2022-11-06T04:06:40.121Z,99.99
2022-11-06T04:07:40.121Z,99.99
2022-11-06T04:08:40.118Z,99.99
2022-11-06T04:09:40.115Z,99.99
2022-11-06T04:10:40.116Z,99.99
2022-11-06T04:11:40.105Z,99.99
2022-11-06T04:12:40.088Z,99.99
2022-11-06T04:13:40.113Z,99.99
2022-11-06T04:14:40.081Z,99.99
2022-11-06T04:15:40.090Z,99.99
2022-11-06T04:16:40.058Z,99.99
2022-11-06T04:17:40.057Z,99.99
2022-11-06T04:18:40.060Z,99.99
2022-11-06T04:19:40.045Z,99.99
2022-11-06T04:20:40.090Z,99.99
2022-11-06T04:21:40.088Z,99.99
2022-11-06T04:22:40.058Z,99.99
2022-11-06T04:23:40.021Z,99.99
2022-11-06T04:24:40.010Z,99.99
2022-11-06T04:25:39.992Z,99.99
2022-11-06T04:26:40.025Z,99.99
2022-11-06T04:27:39.990Z,99.99
2022-11-06T04:28:39.985Z,99.99
2022-11-06T04:29:39.978Z,99.99
2022-11-06T04:30:39.957Z,99.99
2022-11-06T04:31:39.975Z,99.99
2022-11-06T04:32:40.068Z,99.99
2022-11-06T04:33:39.934Z,99.99
2022-11-06T04:34:39.950Z,99.99
2022-11-06T04:35:39.952Z,99.99
2022-11-06T04:36:39.929Z,99.99
2022-11-06T04:37:39.943Z,99.99
2022-11-06T04:38:39.921Z,99.99
2022-11-06T04:39:39.901Z,99.99
2022-11-06T04:40:39.889Z,99.99
2022-11-06T04:41:39.887Z,99.99
2022-11-06T04:42:39.898Z,99.99
2022-11-06T04:43:39.989Z,99.99
2022-11-06T04:44:39.852Z,99.99
2022-11-06T04:45:39.877Z,99.99
2022-11-06T04:46:39.857Z,99.99
2022-11-06T04:47:39.850Z,99.99
2022-11-06T04:48:39.941Z,99.99
2022-11-06T04:49:39.863Z,99.99
2022-11-06T04:50:39.863Z,99.99
2022-11-06T04:51:39.841Z,99.99
2022-11-06T04:52:39.811Z,99.99
2022-11-06T04:53:39.801Z,99.99
2022-11-06T04:54:39.848Z,99.99
2022-11-06T04:55:39.805Z,99.99
2022-11-06T04:56:44.702Z,99.99
2022-11-06T04:57:39.797Z,99.99
2022-11-06T04:58:39.786Z,99.99
2022-11-06T04:59:39.797Z,99.99
2022-11-06T05:00:39.776Z,99.99
2022-11-06T05:01:39.962Z,99.99
2022-11-06T05:02:39.761Z,99.99
2022-11-06T05:03:39.743Z,99.99
2022-11-06T05:04:39.756Z,99.99
2022-11-06T05:05:39.769Z,99.99
2022-11-06T05:06:39.747Z,99.99
2022-11-06T05:07:39.729Z,99.99
2022-11-06T05:08:39.711Z,99.99
2022-11-06T05:09:39.706Z,99.99
2022-11-06T05:10:39.713Z,99.99
2022-11-06T05:11:39.699Z,99.99
2022-11-06T05:12:39.694Z,99.99
2022-11-06T05:13:39.690Z,99.99
2022-11-06T05:14:39.682Z,99.99
2022-11-06T05:15:39.671Z,99.99
2022-11-06T05:16:39.785Z,99.99
2022-11-06T05:17:39.668Z,99.99
2022-11-06T05:18:39.648Z,99.99
2022-11-06T05:19:39.665Z,99.99
2022-11-06T05:20:39.629Z,99.99
2022-11-06T05:21:39.637Z,99.99
2022-11-06T05:22:39.617Z,99.99
2022-11-06T05:23:39.616Z,99.99
2022-11-06T05:24:39.607Z,99.99
2022-11-06T05:25:39.609Z,99.99
2022-11-06T05:26:39.589Z,99.99
2022-11-06T05:27:39.675Z,99.99
2022-11-06T05:28:39.577Z,99.99
2022-11-06T05:29:39.591Z,99.99
2022-11-06T05:30:39.589Z,99.99
2022-11-06T05:31:39.644Z,99.99
2022-11-06T05:32:40.591Z,99.99
2022-11-06T05:33:39.537Z,99.99
2022-11-06T05:34:39.536Z,99.99
2022-11-06T05:35:39.542Z,99.99
2022-11-06T05:36:39.532Z,99.99
2022-11-06T05:37:39.555Z,99.99
2022-11-06T05:38:39.580Z,99.99
2022-11-06T05:39:41.999Z,99.99
2022-11-06T05:40:40.499Z,99.99
2022-11-06T05:41:39.504Z,99.99
2022-11-06T05:42:39.494Z,99.99
2022-11-06T05:43:39.589Z,99.99
2022-11-06T05:44:39.479Z,99.99
2022-11-06T05:45:39.463Z,99.99
2022-11-06T05:46:54.850Z,99.99
2022-11-06T05:47:41.469Z,99.99
2022-11-06T05:48:39.464Z,99.99
2022-11-06T05:49:39.483Z,99.99
2022-11-06T05:50:39.433Z,99.99
2022-11-06T05:51:39.445Z,99.99
2022-11-06T05:52:39.430Z,99.99
2022-11-06T05:53:39.412Z,99.99
2022-11-06T05:54:39.529Z,99.99
2022-11-06T05:55:39.413Z,99.99
2022-11-06T05:56:39.391Z,99.99
2022-11-06T05:57:39.651Z,99.99
2022-11-06T05:58:40.160Z,99.99
2022-11-06T05:59:39.379Z,99.99
2022-11-06T06:00:39.478Z,99.99
2022-11-06T06:01:39.536Z,99.99
2022-11-06T06:02:39.544Z,99.99
2022-11-06T06:03:40.171Z,99.99
2022-11-06T06:04:39.351Z,99.99
2022-11-06T06:05:39.373Z,99.99
2022-11-06T06:06:39.362Z,99.99
2022-11-06T06:07:39.317Z,99.99
2022-11-06T06:08:39.327Z,99.99
2022-11-06T06:09:39.328Z,99.99
2022-11-06T06:10:39.313Z,99.99
2022-11-06T06:11:39.342Z,99.99
2022-11-06T06:12:39.314Z,99.99
2022-11-06T06:13:39.280Z,99.99
2022-11-06T06:14:39.295Z,99.99
2022-11-06T06:15:39.293Z,99.99
2022-11-06T06:16:39.398Z,99.99
2022-11-06T06:17:39.258Z,99.99
2022-11-06T06:18:39.252Z,99.99
2022-11-06T06:19:39.251Z,99.99
2022-11-06T06:20:39.240Z,99.99
2022-11-06T06:21:39.241Z,99.99
2022-11-06T06:22:39.364Z,99.99
2022-11-06T06:23:39.225Z,99.99
2022-11-06T06:24:39.265Z,99.99
2022-11-06T06:25:39.204Z,99.99
2022-11-06T06:26:39.215Z,99.99
2022-11-06T06:27:39.223Z,99.99
2022-11-06T06:28:39.202Z,99.99
2022-11-06T06:29:39.193Z,99.99
2022-11-06T06:30:39.276Z,99.99
2022-11-06T06:31:39.168Z,99.99
2022-11-06T06:32:39.182Z,99.99
2022-11-06T06:33:39.237Z,99.99
2022-11-06T06:34:39.159Z,99.99
2022-11-06T06:35:39.138Z,99.99
2022-11-06T06:36:39.125Z,99.99
2022-11-06T06:37:39.133Z,99.99
2022-11-06T06:38:39.167Z,99.99
2022-11-06T06:39:39.132Z,99.99
2022-11-06T06:40:39.113Z,99.99
2022-11-06T06:41:39.099Z,99.99
2022-11-06T06:42:39.095Z,99.99
2022-11-06T06:43:39.105Z,99.99
2022-11-06T06:44:39.078Z,99.99
2022-11-06T06:45:39.075Z,99.99
2022-11-06T06:46:39.086Z,99.99
2022-11-06T06:47:39.085Z,99.99
2022-11-06T06:48:39.061Z,99.99
2022-11-06T06:49:39.092Z,99.99
2022-11-06T06:50:39.057Z,99.99
2022-11-06T06:51:39.078Z,99.99
2022-11-06T06:52:39.039Z,99.99
2022-11-06T06:53:39.039Z,99.99
2022-11-06T06:54:39.103Z,99.99
2022-11-06T06:55:39.025Z,99.99
2022-11-06T06:56:39.013Z,99.99
2022-11-06T06:57:39.001Z,99.99
2022-11-06T06:58:38.995Z,99.99
2022-11-06T06:59:39.006Z,99.99
2022-11-06T07:00:39.131Z,99.99
2022-11-06T07:01:39.094Z,99.99
2022-11-06T07:02:38.979Z,99.99
2022-11-06T07:03:38.965Z,99.99
2022-11-06T07:04:38.957Z,99.99
2022-11-06T07:05:39.004Z,99.99
2022-11-06T07:06:38.952Z,99.90
2022-11-06T07:07:38.945Z,99.07
2022-11-06T07:08:38.965Z,99.17
2022-11-06T07:09:39.096Z,99.13
2022-11-06T07:10:38.935Z,99.07
2022-11-06T07:11:39.045Z,99.13
2022-11-06T07:12:38.921Z,98.55
2022-11-06T07:13:38.926Z,98.50
2022-11-06T07:14:38.916Z,98.10
2022-11-06T07:15:38.914Z,98.20
2022-11-06T07:16:38.927Z,97.95
2022-11-06T07:17:38.882Z,96.75
2022-11-06T07:18:38.891Z,97.27
2022-11-06T07:20:11.620Z,97.13
2022-11-06T07:20:38.858Z,97.02
2022-11-06T07:21:38.860Z,96.92
2022-11-06T07:22:38.892Z,97.13
2022-11-06T07:23:38.871Z,95.14
2022-11-06T07:24:38.848Z,92.73
2022-11-06T07:25:38.847Z,92.03
2022-11-06T07:26:38.836Z,89.83
2022-11-06T07:27:38.851Z,89.72
2022-11-06T07:28:38.808Z,89.66
2022-11-06T07:29:38.801Z,89.99
2022-11-06T07:30:38.807Z,87.79
2022-11-06T07:31:38.816Z,85.42
2022-11-06T07:32:38.779Z,83.54
2022-11-06T07:33:38.808Z,81.93
2022-11-06T07:34:38.782Z,80.69
2022-11-06T07:35:38.784Z,78.88
2022-11-06T07:36:38.773Z,76.87
2022-11-06T07:37:38.769Z,73.13
2022-11-06T07:38:38.855Z,72.75
2022-11-06T07:39:38.743Z,70.92
2022-11-06T07:40:38.756Z,68.66
2022-11-06T07:41:38.738Z,68.52
2022-11-06T07:42:43.265Z,67.38
2022-11-06T07:43:41.166Z,65.48
2022-11-06T07:44:38.734Z,65.34
2022-11-06T07:45:38.708Z,67.10
2022-11-06T07:46:38.706Z,65.34
2022-11-06T07:47:38.715Z,65.55
2022-11-06T07:48:38.685Z,65.64
2022-11-06T07:49:39.121Z,67.10
2022-11-06T07:50:38.682Z,65.91
2022-11-06T07:51:38.668Z,65.37
2022-11-06T07:52:38.650Z,65.69
2022-11-06T07:53:38.658Z,65.08
2022-11-06T07:54:38.773Z,64.67
2022-11-06T07:55:42.228Z,63.26
2022-11-06T07:56:39.633Z,63.60
2022-11-06T07:57:38.624Z,61.79
2022-11-06T07:58:38.633Z,59.38
2022-11-06T07:59:38.655Z,58.45
2022-11-06T08:00:39.148Z,57.76
2022-11-06T08:01:38.733Z,55.99
2022-11-06T08:02:38.648Z,54.21
2022-11-06T08:03:38.604Z,54.88
2022-11-06T08:04:38.584Z,54.40
2022-11-06T08:05:38.594Z,53.05
2022-11-06T08:06:38.592Z,53.00
2022-11-06T08:07:38.587Z,54.71
2022-11-06T08:08:38.578Z,56.96
2022-11-06T08:09:38.557Z,55.85
2022-11-06T08:10:38.564Z,56.81
2022-11-06T08:11:38.682Z,56.75
2022-11-06T08:12:38.538Z,56.04
2022-11-06T08:13:38.548Z,54.68
2022-11-06T08:14:41.405Z,54.38
2022-11-06T08:15:40.066Z,52.42
2022-11-06T08:16:38.540Z,54.81
2022-11-06T08:17:38.510Z,54.88
2022-11-06T08:18:38.497Z,54.81
2022-11-06T08:19:38.511Z,53.98
2022-11-06T08:20:38.494Z,53.07
2022-11-06T08:21:38.495Z,54.58
2022-11-06T08:22:38.598Z,55.04
2022-11-06T08:23:38.478Z,55.31
2022-11-06T08:24:38.486Z,52.94
2022-11-06T08:25:38.478Z,54.23
2022-11-06T08:26:38.449Z,53.47
2022-11-06T08:27:38.578Z,51.68
2022-11-06T08:28:38.446Z,51.56
2022-11-06T08:29:41.560Z,50.61
2022-11-06T08:30:40.147Z,50.38
2022-11-06T08:31:38.427Z,48.93
2022-11-06T08:32:38.438Z,49.04
2022-11-06T08:33:38.504Z,48.19
2022-11-06T08:34:39.427Z,47.50
2022-11-06T08:35:38.417Z,48.25
2022-11-06T08:36:38.409Z,49.10
2022-11-06T08:37:38.398Z,50.18
2022-11-06T08:38:38.526Z,51.68
2022-11-06T08:39:38.476Z,51.34
2022-11-06T08:40:38.382Z,50.59
2022-11-06T08:41:38.383Z,49.93
2022-11-06T08:42:38.372Z,48.81
2022-11-06T08:43:38.370Z,48.16
2022-11-06T08:44:38.473Z,47.75
2022-11-06T08:45:38.357Z,48.53
2022-11-06T08:46:38.371Z,49.23
2022-11-06T08:47:38.359Z,47.97
2022-11-06T08:48:38.361Z,49.27
2022-11-06T08:49:38.387Z,50.73
2022-11-06T08:50:38.346Z,51.26
2022-11-06T08:51:38.335Z,49.98
2022-11-06T08:52:38.356Z,51.46
2022-11-06T08:53:38.412Z,50.61
2022-11-06T08:54:38.335Z,49.96
2022-11-06T08:55:38.430Z,48.35
2022-11-06T08:56:38.309Z,48.35
2022-11-06T08:57:38.319Z,48.11
2022-11-06T08:58:38.294Z,48.61
2022-11-06T08:59:38.301Z,48.33
2022-11-06T09:00:38.502Z,49.65
2022-11-06T09:01:38.463Z,51.39
2022-11-06T09:02:38.305Z,50.26
2022-11-06T09:03:38.259Z,50.51
2022-11-06T09:04:41.306Z,48.66
2022-11-06T09:05:39.276Z,49.61
2022-11-06T09:06:38.259Z,48.61
2022-11-06T09:07:38.258Z,48.01
2022-11-06T09:08:38.251Z,47.75
2022-11-06T09:09:38.241Z,48.80
2022-11-06T09:10:38.252Z,48.18
2022-11-06T09:11:38.252Z,49.57
2022-11-06T09:12:38.238Z,50.76
2022-11-06T09:13:38.233Z,52.17
2022-11-06T09:14:38.219Z,52.67
2022-11-06T09:15:38.211Z,51.39
2022-11-06T09:16:38.225Z,50.38
2022-11-06T09:17:38.252Z,48.58
2022-11-06T09:18:38.218Z,50.34
2022-11-06T09:19:38.177Z,48.73
2022-11-06T09:20:38.587Z,48.53
2022-11-06T09:21:38.174Z,48.01
2022-11-06T09:22:38.289Z,48.31
2022-11-06T09:23:38.200Z,47.03
2022-11-06T09:25:02.108Z,46.11
2022-11-06T09:25:40.166Z,45.54
2022-11-06T09:26:38.159Z,46.17
2022-11-06T09:27:38.238Z,46.03
2022-11-06T09:28:38.146Z,43.41
2022-11-06T09:29:38.143Z,43.79
2022-11-06T09:30:38.140Z,42.99
2022-11-06T09:31:38.113Z,42.10
2022-11-06T09:32:38.107Z,43.84
2022-11-06T09:33:38.131Z,45.20
2022-11-06T09:34:38.106Z,48.14
2022-11-06T09:35:38.104Z,46.80
2022-11-06T09:36:38.097Z,45.79
2022-11-06T09:37:38.097Z,45.08
2022-11-06T09:38:38.213Z,46.14
2022-11-06T09:39:38.089Z,45.84
2022-11-06T09:40:38.068Z,44.32
2022-11-06T09:41:38.066Z,43.91
2022-11-06T09:42:38.061Z,44.46
2022-11-06T09:44:03.676Z,44.60
2022-11-06T09:44:39.158Z,46.62
2022-11-06T09:45:38.053Z,47.36
2022-11-06T09:46:38.047Z,44.59
2022-11-06T09:47:38.036Z,43.18
2022-11-06T09:48:38.035Z,42.47
2022-11-06T09:49:38.045Z,42.96
2022-11-06T09:50:38.123Z,44.35
2022-11-06T09:51:38.001Z,44.48
2022-11-06T09:52:38.009Z,46.08
2022-11-06T09:53:37.994Z,47.09
2022-11-06T09:54:37.990Z,48.07
2022-11-06T09:55:38.016Z,47.97
2022-11-06T09:56:37.984Z,50.41
2022-11-06T09:57:37.990Z,46.62
2022-11-06T09:58:37.972Z,45.56
2022-11-06T09:59:37.966Z,43.98
2022-11-06T10:00:37.969Z,45.65
2022-11-06T10:01:38.109Z,46.09
2022-11-06T10:02:38.031Z,48.37
2022-11-06T10:03:37.956Z,49.53
2022-11-06T10:04:37.945Z,47.49
2022-11-06T10:05:37.941Z,44.54
2022-11-06T10:06:37.984Z,43.65
2022-11-06T10:07:37.908Z,42.82
2022-11-06T10:08:37.965Z,43.79
2022-11-06T10:09:38.175Z,44.13
2022-11-06T10:10:37.913Z,44.62
2022-11-06T10:11:37.904Z,46.73
2022-11-06T10:12:38.031Z,48.50
2022-11-06T10:13:37.922Z,48.01
2022-11-06T10:14:37.878Z,50.62
2022-11-06T10:15:37.893Z,53.20
2022-11-06T10:16:37.869Z,51.71
2022-11-06T10:17:37.920Z,48.44
2022-11-06T10:18:37.859Z,51.86
2022-11-06T10:19:37.849Z,51.03
2022-11-06T10:20:37.850Z,50.33
2022-11-06T10:21:37.844Z,46.23
2022-11-06T10:22:37.852Z,45.59
2022-11-06T10:23:37.943Z,44.70
2022-11-06T10:24:37.847Z,43.96
2022-11-06T10:25:37.823Z,44.66
2022-11-06T10:26:37.830Z,43.01
2022-11-06T10:27:37.807Z,44.09
2022-11-06T10:28:37.947Z,44.32
2022-11-06T10:29:37.805Z,46.14
2022-11-06T10:30:37.798Z,45.24
2022-11-06T10:31:37.853Z,43.76
2022-11-06T10:32:37.786Z,44.50
2022-11-06T10:33:37.800Z,44.38
2022-11-06T10:34:37.789Z,44.92
2022-11-06T10:35:37.788Z,43.90
2022-11-06T10:36:37.762Z,43.42
2022-11-06T10:37:37.749Z,43.32
2022-11-06T10:38:37.758Z,43.19
2022-11-06T10:39:37.852Z,44.26
2022-11-06T10:40:37.737Z,43.34
2022-11-06T10:41:37.809Z,45.12
2022-11-06T10:42:38.547Z,45.84
2022-11-06T10:43:38.716Z,45.28
2022-11-06T10:44:37.768Z,44.58
2022-11-06T10:45:37.775Z,42.93
2022-11-06T10:46:37.728Z,43.09
2022-11-06T10:47:37.683Z,41.69
2022-11-06T10:48:41.365Z,40.69
2022-11-06T10:49:37.705Z,41.41
2022-11-06T10:50:38.674Z,46.10
2022-11-06T10:51:37.660Z,45.57
2022-11-06T10:52:37.683Z,48.38
2022-11-06T10:53:37.678Z,50.83
2022-11-06T10:54:37.671Z,47.07
2022-11-06T10:55:37.678Z,45.00
2022-11-06T10:56:37.812Z,45.24
2022-11-06T10:57:37.658Z,42.47
2022-11-06T10:58:37.636Z,42.13
2022-11-06T10:59:37.663Z,40.70
2022-11-06T11:00:37.722Z,40.56
2022-11-06T11:01:37.936Z,42.33
2022-11-06T11:02:37.713Z,43.78
2022-11-06T11:03:37.601Z,45.27
2022-11-06T11:04:37.625Z,45.31
2022-11-06T11:05:37.598Z,44.18
2022-11-06T11:06:37.610Z,46.48
2022-11-06T11:07:37.605Z,45.73
2022-11-06T11:08:37.570Z,44.00
2022-11-06T11:09:37.592Z,46.95
2022-11-06T11:10:37.561Z,45.26
2022-11-06T11:11:37.554Z,43.40
2022-11-06T11:12:37.685Z,40.97
2022-11-06T11:13:37.581Z,42.77
2022-11-06T11:14:37.546Z,44.03
2022-11-06T11:15:37.531Z,41.97
2022-11-06T11:16:37.558Z,41.39
2022-11-06T11:17:37.526Z,40.71
2022-11-06T11:18:37.561Z,42.47
2022-11-06T11:19:37.526Z,41.97
2022-11-06T11:20:37.521Z,40.91
2022-11-06T11:21:37.537Z,40.85
2022-11-06T11:22:37.544Z,42.93
2022-11-06T11:23:37.613Z,42.40
2022-11-06T11:24:37.509Z,41.41
2022-11-06T11:25:37.482Z,42.11
2022-11-06T11:26:37.477Z,38.89
2022-11-06T11:27:37.485Z,40.93
2022-11-06T11:28:37.519Z,41.43
2022-11-06T11:29:37.495Z,41.80
2022-11-06T11:30:37.457Z,42.38
2022-11-06T11:31:37.479Z,39.81
2022-11-06T11:32:37.563Z,39.93
2022-11-06T11:33:37.476Z,42.63
2022-11-06T11:34:37.555Z,43.46
2022-11-06T11:35:37.429Z,42.91
2022-11-06T11:36:37.427Z,43.77
2022-11-06T11:37:37.419Z,43.16
2022-11-06T11:38:38.204Z,44.34
2022-11-06T11:39:37.387Z,44.08
2022-11-06T11:40:37.543Z,42.77
2022-11-06T11:41:37.430Z,41.17
2022-11-06T11:42:37.398Z,43.50
2022-11-06T11:43:37.368Z,42.88
2022-11-06T11:44:37.377Z,42.80
2022-11-06T11:45:38.349Z,44.18
2022-11-06T11:46:37.435Z,43.82
2022-11-06T11:47:37.344Z,42.90
2022-11-06T11:48:37.349Z,42.35
2022-11-06T11:49:37.340Z,44.12
2022-11-06T11:50:37.348Z,42.33
2022-11-06T11:51:37.385Z,44.57
2022-11-06T11:52:37.326Z,44.41
2022-11-06T11:53:37.367Z,45.42
2022-11-06T11:54:37.375Z,46.47
2022-11-06T11:55:37.317Z,47.71
2022-11-06T11:57:03.003Z,44.28
2022-11-06T11:57:38.312Z,44.22
2022-11-06T11:58:37.312Z,42.57
2022-11-06T11:59:37.283Z,39.75
2022-11-06T12:00:37.304Z,41.01
2022-11-06T12:01:37.349Z,44.19
2022-11-06T12:02:37.482Z,44.89
2022-11-06T12:03:37.300Z,44.67
2022-11-06T12:04:37.279Z,46.39
2022-11-06T12:05:37.294Z,47.14
2022-11-06T12:06:37.261Z,48.21
2022-11-06T12:07:40.791Z,47.61
2022-11-06T12:08:38.256Z,45.44
2022-11-06T12:09:37.269Z,45.67
2022-11-06T12:10:37.248Z,46.34
2022-11-06T12:11:37.224Z,45.00
2022-11-06T12:12:37.262Z,44.17
2022-11-06T12:13:37.241Z,44.17
2022-11-06T12:14:37.238Z,44.06
2022-11-06T12:15:37.246Z,42.76
2022-11-06T12:16:37.219Z,42.63
2022-11-06T12:17:37.210Z,42.86
2022-11-06T12:18:37.260Z,43.72
2022-11-06T12:19:37.179Z,42.32
2022-11-06T12:20:37.199Z,42.72
2022-11-06T12:21:37.214Z,43.74
2022-11-06T12:22:37.192Z,42.76
2022-11-06T12:23:37.164Z,45.07
2022-11-06T12:24:37.299Z,46.34
2022-11-06T12:25:37.172Z,44.08
2022-11-06T12:26:37.161Z,43.08
2022-11-06T12:27:37.159Z,43.34
2022-11-06T12:28:37.159Z,43.86
2022-11-06T12:29:37.259Z,44.18
2022-11-06T12:30:37.133Z,42.55
2022-11-06T12:31:37.141Z,43.30
2022-11-06T12:32:37.130Z,47.40
2022-11-06T12:34:05.181Z,48.55
2022-11-06T12:34:39.131Z,48.63
2022-11-06T12:35:37.104Z,49.46
2022-11-06T12:36:37.111Z,49.11
2022-11-06T12:37:37.107Z,49.16
2022-11-06T12:38:37.086Z,50.01
2022-11-06T12:39:37.085Z,50.37
2022-11-06T12:40:37.118Z,50.92
2022-11-06T12:41:37.067Z,50.09
2022-11-06T12:42:37.081Z,49.18
2022-11-06T12:43:37.063Z,50.67
2022-11-06T12:44:37.286Z,49.33
2022-11-06T12:45:37.296Z,49.41
2022-11-06T12:46:37.036Z,49.46
2022-11-06T12:47:37.046Z,50.47
2022-11-06T12:48:37.045Z,50.80
2022-11-06T12:49:37.063Z,50.64
2022-11-06T12:50:37.023Z,51.48
2022-11-06T12:51:37.139Z,53.40
2022-11-06T12:52:37.011Z,55.85